Time;durP1;ratioP1;P1;durP2;ratioP2;P2;SDS_P1;SDS_P2;PMS_P1;PMS_P2;Temp;Humidity;BMP_temperature;BMP_pressure;BME280_temperature;BME280_humidity;BME280_pressure;Samples;Min_cycle;Max_cycle;Signal;HPM_P1;HPM_P2
2022/03/01 00:03:11;;;;;;;3.78;3.28;;;2.80;50.50;;;0.70;55.95;103205.97;8459515;27;20047;-84
2022/03/01 00:07:33;;;;;;;6.68;3.95;;;3.00;50.60;;;0.70;55.81;103216.25;8475346;27;20038;-84
2022/03/01 00:11:55;;;;;;;6.88;3.45;;;2.60;50.50;;;0.80;55.59;103236.22;8439524;27;20042;-84
2022/03/01 00:16:17;;;;;;;5.13;3.45;;;2.70;50.60;;;0.30;55.67;103147.50;8455675;27;20041;-84
2022/03/01 00:20:39;;;;;;;4.78;3.50;;;2.70;50.60;;;0.76;55.82;103231.00;8467471;27;20437;-83
2022/03/01 00:25:03;;;;;;;5.53;4.10;;;2.70;50.50;;;0.83;56.04;103243.16;8455541;27;20042;-83
2022/03/01 00:29:24;;;;;;;8.50;3.95;;;2.60;50.50;;;0.81;56.19;103249.97;8459585;27;20118;-83
2022/03/01 00:33:46;;;;;;;6.55;4.28;;;2.60;50.50;;;0.65;56.17;103212.72;8493197;27;20120;-83
2022/03/01 00:38:08;;;;;;;4.82;3.85;;;2.60;50.50;;;0.60;56.01;103227.16;8476232;27;20121;-83
2022/03/01 00:42:30;;;;;;;6.88;3.95;;;2.50;50.50;;;0.65;55.72;103220.44;8482717;27;20122;-83
2022/03/01 00:46:52;;;;;;;7.30;4.28;;;2.50;50.60;;;0.14;55.99;103153.97;8469358;27;20495;-83
2022/03/01 00:51:13;;;;;;;5.45;3.47;;;2.40;50.50;;;0.03;55.95;103135.69;8481425;27;20037;-83
2022/03/01 00:55:35;;;;;;;7.15;4.50;;;2.40;50.60;;;0.40;55.88;103196.63;8480458;27;20118;-82
2022/03/01 00:59:57;;;;;;;8.25;4.60;;;2.30;50.60;;;0.43;55.84;103211.25;8478926;27;20123;-83
2022/03/01 01:04:18;;;;;;;5.05;3.78;;;2.30;50.70;;;0.36;55.94;103202.53;8466251;27;20050;-82
2022/03/01 01:08:40;;;;;;;4.38;3.63;;;2.20;50.70;;;0.40;56.09;103214.59;8480024;27;20118;-82
2022/03/01 01:13:02;;;;;;;4.40;3.15;;;2.00;50.70;;;0.31;55.99;103206.66;8466388;27;20118;-82
2022/03/01 01:17:24;;;;;;;6.78;4.03;;;2.20;50.80;;;0.34;56.07;103211.00;8478937;27;20114;-82
2022/03/01 01:26:26;;;;;;;6.68;3.92;;;2.10;50.80;;;0.29;56.02;103202.31;8496677;27;20023;-82
2022/03/01 01:30:47;;;;;;;6.13;3.88;;;2.10;50.90;;;0.29;56.07;103208.31;8467142;27;20114;-82
2022/03/01 01:35:12;;;;;;;7.15;3.92;;;2.10;50.90;;;0.01;56.02;103154.44;8459442;27;20102;-82
2022/03/01 01:39:34;;;;;;;8.45;4.32;;;2.10;50.80;;;0.19;55.80;103181.50;8453483;27;20157;-82
2022/03/01 01:43:56;;;;;;;7.57;4.97;;;2.10;50.80;;;-0.05;55.96;103158.56;8460668;27;20122;-82
2022/03/01 01:48:18;;;;;;;7.72;4.40;;;2.00;50.70;;;0.03;56.42;103173.31;8472000;27;20475;-82
2022/03/01 01:52:40;;;;;;;7.80;4.15;;;2.00;50.80;;;-0.38;56.02;103125.09;8463641;27;20031;-82
2022/03/01 01:57:16;;;;;;;7.57;4.45;;;1.90;50.80;;;-0.07;56.03;103188.47;8477080;27;20041;-81
2022/03/01 02:01:38;;;;;;;7.55;3.65;;;1.70;50.70;;;-0.26;56.03;103152.84;8450225;27;20114;-82
2022/03/01 02:05:59;;;;;;;5.82;4.47;;;1.80;50.80;;;-0.08;56.17;103194.44;8465958;27;20036;-81
2022/03/01 02:10:21;;;;;;;5.43;4.05;;;1.70;50.80;;;-0.63;56.21;103107.25;8456627;27;20432;-82
2022/03/01 02:14:44;;;;;;;6.90;4.35;;;1.60;50.80;;;-0.27;56.31;103172.50;8462296;27;20035;-82
2022/03/01 02:19:10;;;;;;;8.80;4.85;;;1.70;50.90;;;-0.30;56.10;103174.09;8463067;27;20126;-82
2022/03/01 02:23:32;;;;;;;6.32;4.57;;;1.50;50.80;;;-0.33;56.39;103166.31;8476145;27;20110;-82
2022/03/01 02:27:54;;;;;;;5.68;4.25;;;1.70;50.90;;;-0.61;55.99;103124.44;8489853;27;20036;-81
2022/03/01 02:32:16;;;;;;;6.40;4.28;;;1.60;50.90;;;-0.37;56.28;103156.78;8456280;27;20118;-82
2022/03/01 02:36:38;;;;;;;5.55;3.78;;;1.60;51.00;;;-0.48;56.39;103134.25;8492123;27;20535;-81
2022/03/01 02:40:59;;;;;;;5.95;4.20;;;1.60;51.00;;;-0.42;56.18;103154.06;8457235;27;20039;-81
2022/03/01 02:45:22;;;;;;;7.78;4.03;;;1.50;50.90;;;-0.37;56.22;103164.50;8477711;27;20031;-81
2022/03/01 02:49:44;;;;;;;6.43;4.05;;;1.60;51.00;;;-0.88;56.21;103082.56;8467943;27;20111;-81
2022/03/01 02:54:07;;;;;;;10.07;4.75;;;1.60;51.00;;;-0.52;56.42;103146.91;8483214;27;20118;-81
2022/03/01 02:58:29;;;;;;;7.55;4.28;;;1.50;51.00;;;-0.49;56.47;103153.03;8486322;27;20599;-81
2022/03/01 03:02:50;;;;;;;6.20;4.35;;;1.30;50.90;;;-0.62;56.21;103132.97;8468428;27;20765;-81
2022/03/01 03:07:13;;;;;;;9.18;4.40;;;1.50;51.00;;;-0.55;56.33;103147.69;8449846;27;20031;-81
2022/03/01 03:11:34;;;;;;;8.80;4.85;;;1.30;50.90;;;-0.45;56.50;103165.13;8458891;27;20466;-81
2022/03/01 03:15:56;;;;;;;9.07;4.78;;;1.70;51.10;;;-0.56;56.28;103153.66;8472919;27;20114;-81
2022/03/01 03:20:18;;;;;;;8.48;4.53;;;1.40;51.10;;;-0.54;56.46;103153.69;8440084;27;20605;-82
2022/03/01 03:24:40;;;;;;;7.00;3.83;;;1.40;51.10;;;-0.58;56.22;103146.75;8487218;27;20051;-82
2022/03/01 03:29:02;;;;;;;6.78;4.38;;;1.40;51.10;;;-0.54;56.31;103151.13;8463336;28;20045;-82
2022/03/01 03:33:23;;;;;;;5.88;4.10;;;1.30;51.10;;;-0.65;56.49;103142.25;8452245;27;20104;-81
2022/03/01 03:37:46;;;;;;;6.75;4.47;;;1.20;51.00;;;-0.95;56.31;103078.94;8478947;27;20484;-81
2022/03/01 03:42:07;;;;;;;8.00;4.28;;;1.40;51.10;;;-0.53;56.27;103158.03;8456309;27;20126;-81
2022/03/01 03:46:29;;;;;;;7.32;4.13;;;1.30;51.10;;;-0.62;56.44;103143.22;8499853;27;20108;-81
2022/03/01 03:50:51;;;;;;;6.60;4.60;;;1.40;51.10;;;-0.65;56.62;103148.25;8457644;27;20045;-82
2022/03/01 03:55:13;;;;;;;11.05;4.82;;;1.30;51.20;;;-0.76;56.48;103126.53;8450124;27;20045;-82
2022/03/01 03:59:36;;;;;;;7.82;4.50;;;1.30;51.10;;;-0.92;56.67;103107.22;8445535;27;20119;-81
2022/03/01 04:03:59;;;;;;;7.10;4.32;;;1.30;51.10;;;-0.86;56.47;103110.00;8472354;27;20034;-82
2022/03/01 04:08:21;;;;;;;9.00;5.53;;;1.30;51.10;;;-0.80;56.24;103128.13;8433628;27;20031;-82
2022/03/01 04:12:43;;;;;;;9.38;5.05;;;1.00;51.00;;;-0.79;56.36;103129.88;8456849;27;20039;-83
2022/03/01 04:17:05;;;;;;;7.93;5.38;;;1.30;51.10;;;-0.78;56.47;103141.03;8441259;27;20522;-82
2022/03/01 04:21:27;;;;;;;11.05;4.57;;;1.20;51.10;;;-0.96;56.39;103116.53;8459496;27;20397;-81
2022/03/01 04:25:49;;;;;;;6.70;4.25;;;1.40;51.20;;;-0.92;56.49;103120.06;8444421;27;20053;-82
2022/03/01 04:30:11;;;;;;;11.27;4.97;;;1.20;51.20;;;-0.76;56.45;103136.78;8469644;27;20042;-81
2022/03/01 04:34:33;;;;;;;5.63;4.13;;;1.10;51.10;;;-1.10;56.60;103099.84;8460476;27;20102;-81
2022/03/01 04:38:55;;;;;;;7.88;4.97;;;1.10;51.20;;;-0.81;56.53;103130.66;8484485;27;20395;-81
2022/03/01 04:43:16;;;;;;;7.10;4.88;;;1.00;51.20;;;-0.96;56.40;103116.53;8477824;27;20037;-83
2022/03/01 04:47:39;;;;;;;8.52;4.95;;;1.00;51.20;;;-0.93;56.41;103116.63;8497878;27;20043;-82
2022/03/01 04:52:01;;;;;;;8.90;4.90;;;1.10;51.30;;;-0.96;56.82;103106.28;8452898;27;20492;-81
2022/03/01 04:56:22;;;;;;;7.82;4.57;;;1.00;51.20;;;-1.08;56.48;103093.09;8466455;27;20027;-81
2022/03/01 05:00:44;;;;;;;7.00;4.03;;;0.90;51.30;;;-0.94;56.49;103109.75;8477587;27;20045;-81
2022/03/01 05:05:10;;;;;;;9.27;4.47;;;1.00;51.30;;;-1.51;56.56;103019.09;8493333;27;20432;-81
2022/03/01 05:09:33;;;;;;;8.80;4.80;;;1.00;51.30;;;-1.10;56.54;103104.13;8473259;27;20482;-81
2022/03/01 05:13:55;;;;;;;6.10;4.43;;;0.80;51.20;;;-0.99;56.70;103124.13;8460800;27;20034;-82
2022/03/01 05:18:16;;;;;;;6.50;3.97;;;0.90;51.40;;;-1.13;56.92;103115.16;8445345;27;20403;-81
2022/03/01 05:22:39;;;;;;;7.95;4.15;;;0.90;51.40;;;-1.13;56.81;103117.72;8448015;27;20035;-81
2022/03/01 05:27:00;;;;;;;7.53;4.25;;;0.80;51.30;;;-1.21;56.46;103106.34;8463514;27;20505;-81
2022/03/01 05:31:22;;;;;;;11.13;5.00;;;0.90;51.40;;;-1.08;56.62;103123.84;8463804;27;20030;-81
2022/03/01 05:35:44;;;;;;;7.75;4.65;;;0.90;51.40;;;-1.03;56.55;103137.66;8462070;27;20031;-80
2022/03/01 05:40:08;;;;;;;9.48;4.45;;;0.90;51.40;;;-0.99;56.85;103148.91;8461900;27;20034;-81
2022/03/01 05:44:30;;;;;;;8.10;4.35;;;0.90;51.40;;;-1.11;56.68;103133.97;8477799;27;20027;-81
2022/03/01 05:48:52;;;;;;;8.43;4.63;;;0.90;51.30;;;-1.44;56.94;103088.50;8449619;27;20150;-81
2022/03/01 05:53:14;;;;;;;8.75;5.07;;;0.90;51.30;;;-1.09;56.43;103152.84;8482122;27;20126;-81
2022/03/01 05:57:37;;;;;;;10.60;4.50;;;0.90;51.20;;;-1.25;56.63;103138.66;8489806;27;20034;-81
2022/03/01 06:01:58;;;;;;;6.47;4.32;;;0.90;51.20;;;-1.24;56.70;103144.66;8449598;27;20031;-81
2022/03/01 06:06:20;;;;;;;7.32;4.72;;;0.80;51.20;;;-1.38;56.80;103123.72;8458744;27;20035;-81
2022/03/01 06:10:42;;;;;;;9.55;4.60;;;0.80;51.10;;;-1.82;56.86;103062.50;8490754;27;20035;-81
2022/03/01 06:15:05;;;;;;;8.07;4.68;;;0.80;51.20;;;-1.35;56.81;103144.31;8465123;27;20046;-81
2022/03/01 06:19:27;;;;;;;8.70;4.55;;;0.70;51.20;;;-1.29;56.37;103164.16;8462998;27;20110;-81
2022/03/01 06:23:49;;;;;;;9.40;4.78;;;1.00;51.30;;;-1.42;56.93;103150.06;8472016;27;20514;-81
2022/03/01 06:28:10;;;;;;;7.78;5.57;;;0.60;51.30;;;-1.41;56.57;103157.78;8454283;27;20039;-82
2022/03/01 06:32:33;;;;;;;9.68;5.10;;;0.40;51.30;;;-1.47;56.88;103149.03;8456162;27;20511;-81
2022/03/01 06:36:54;;;;;;;7.50;4.40;;;0.50;51.50;;;-1.41;56.64;103159.50;8472002;27;20039;-81
2022/03/01 06:41:16;;;;;;;7.72;4.95;;;0.50;51.60;;;-1.41;57.10;103152.66;8436625;27;20119;-81
2022/03/01 06:45:38;;;;;;;7.18;5.00;;;0.40;51.70;;;-1.38;56.84;103147.66;8449294;27;20038;-82
2022/03/01 06:50:00;;;;;;;8.52;4.38;;;0.60;51.80;;;-1.42;56.83;103132.13;8449228;27;20035;-80
2022/03/01 06:54:22;;;;;;;9.95;5.82;;;0.60;52.20;;;-1.23;57.24;103149.00;8467165;27;20043;-80
2022/03/01 06:58:44;;;;;;;8.38;4.97;;;0.70;52.00;;;-1.39;57.17;103097.22;8470941;27;20035;-81
2022/03/01 07:03:06;;;;;;;8.30;5.00;;;0.70;52.20;;;-1.17;57.25;103118.41;8470342;27;20043;-81
2022/03/01 07:07:28;;;;;;;11.27;6.03;;;0.80;52.10;;;-0.95;57.08;103137.91;8479214;27;20037;-80
2022/03/01 07:11:49;;;;;;;10.30;4.88;;;0.90;52.10;;;-1.05;56.99;103097.41;8476418;27;20126;-80
2022/03/01 07:16:11;;;;;;;7.40;4.70;;;1.10;52.10;;;-0.74;57.25;103135.16;8467682;27;20042;-81
2022/03/01 07:20:34;;;;;;;8.93;4.55;;;1.20;52.00;;;-0.80;57.33;103104.19;8459671;27;20035;-80
2022/03/01 07:24:56;;;;;;;7.70;4.72;;;1.20;51.90;;;-0.48;57.24;103136.81;8419529;27;20039;-81
2022/03/01 07:29:18;;;;;;;8.20;5.10;;;1.50;51.90;;;-0.50;57.24;103110.22;8470056;28;20113;-80
2022/03/01 07:33:41;;;;;;;7.13;4.63;;;1.60;51.90;;;-0.47;57.34;103099.16;8455859;27;20126;-80
2022/03/01 07:38:02;;;;;;;8.32;4.32;;;1.70;51.80;;;-0.19;57.29;103123.91;8483397;27;20035;-80
2022/03/01 07:42:24;;;;;;;8.90;4.63;;;1.90;51.70;;;-0.06;57.40;103112.28;8458571;28;20043;-82
2022/03/01 07:46:46;;;;;;;5.82;3.83;;;2.00;51.60;;;0.08;57.18;103120.38;8449650;27;20031;-82
2022/03/01 07:51:08;;;;;;;8.15;4.88;;;2.10;51.50;;;0.30;57.31;103137.22;8424407;27;20042;-83
2022/03/01 07:55:30;;;;;;;8.63;4.63;;;2.20;51.10;;;0.29;57.33;103107.22;8438556;27;20058;-81
2022/03/01 07:59:52;;;;;;;7.78;4.05;;;2.40;51.00;;;0.42;57.16;103123.00;8430028;27;20061;-81
2022/03/01 08:04:13;;;;;;;5.68;4.13;;;2.50;51.10;;;0.69;57.20;103123.66;8447076;27;20041;-82
2022/03/01 08:08:36;;;;;;;10.30;4.85;;;2.60;50.90;;;0.70;57.46;103097.97;8464635;27;20045;-85
2022/03/01 08:12:57;;;;;;;7.20;4.50;;;2.80;50.80;;;1.13;57.37;103124.69;8456956;27;20042;-79
2022/03/01 08:17:20;;;;;;;9.00;4.47;;;3.00;50.70;;;1.33;57.35;103123.44;8457961;27;20033;-79
2022/03/01 08:21:41;;;;;;;6.40;4.25;;;3.50;51.10;;;1.49;57.47;103105.78;8454579;27;20041;-80
2022/03/01 08:26:04;;;;;;;6.75;4.00;;;3.40;50.70;;;1.84;57.26;103126.22;8466959;27;20073;-82
2022/03/01 08:30:28;;;;;;;7.38;4.13;;;3.70;50.70;;;1.86;57.39;103085.88;8459397;27;20031;-82
2022/03/01 08:34:49;;;;;;;9.40;4.88;;;3.90;50.60;;;1.98;57.24;103073.25;8458642;27;20077;-82
2022/03/01 08:39:11;;;;;;;9.10;4.60;;;4.50;49.80;;;2.31;57.09;103095.31;8445729;27;20056;-81
2022/03/01 08:43:33;;;;;;;7.40;4.45;;;4.40;49.80;;;2.52;56.93;103098.25;8449065;27;20031;-81
2022/03/01 08:47:55;;;;;;;7.22;4.15;;;4.60;49.50;;;2.62;57.06;103082.09;8458165;27;20035;-81
2022/03/01 08:52:17;;;;;;;8.63;4.82;;;4.70;49.60;;;2.92;56.54;103091.13;8456983;27;20039;-82
2022/03/01 08:56:39;;;;;;;7.82;4.22;;;4.80;49.20;;;3.15;56.94;103091.44;8461941;27;20036;-82
2022/03/01 09:01:00;;;;;;;9.65;4.60;;;4.90;49.10;;;3.38;56.67;103084.03;8452487;27;20049;-82
2022/03/01 09:05:22;;;;;;;8.52;4.63;;;5.30;48.20;;;3.57;56.40;103071.34;8470767;27;20034;-82
2022/03/01 09:09:46;;;;;;;10.07;4.13;;;5.60;48.10;;;3.93;56.85;103083.78;8458023;27;20039;-83
2022/03/01 09:14:08;;;;;;;6.75;3.83;;;6.00;49.00;;;4.06;56.54;103067.56;8450292;27;20031;-82
2022/03/01 09:18:30;;;;;;;5.05;3.38;;;6.00;49.20;;;4.27;56.71;103047.94;8435340;27;20038;-82
2022/03/01 09:22:57;;;;;;;6.95;3.85;;;6.20;48.90;;;4.59;56.31;103051.63;8455893;27;20031;-82
2022/03/01 09:27:19;;;;;;;5.30;4.20;;;6.50;47.80;;;4.61;56.18;103015.41;8457752;27;20054;-81
2022/03/01 09:31:41;;;;;;;7.53;4.22;;;6.80;46.80;;;4.98;56.20;103054.47;8442684;27;20044;-81
2022/03/01 09:36:02;;;;;;;10.55;4.53;;;7.20;46.70;;;5.21;55.87;103054.56;8436053;27;20701;-80
2022/03/01 09:40:25;;;;;;;8.77;4.30;;;7.20;46.50;;;5.33;55.89;103032.19;8441285;27;20045;-81
2022/03/01 09:50:31;;;;;;;5.60;3.22;;;7.50;47.00;;;5.71;55.53;103036.63;8469037;27;20130;-80
2022/03/01 09:54:53;;;;;;;4.90;2.83;;;7.70;46.50;;;5.65;55.62;102992.56;8450756;27;20039;-80
2022/03/01 09:59:15;;;;;;;8.00;3.63;;;7.80;47.20;;;6.04;55.37;103021.16;8466238;27;20023;-80
2022/03/01 10:03:38;;;;;;;5.32;3.28;;;7.90;46.70;;;6.17;55.01;103012.50;8447626;27;20045;-80
2022/03/01 10:08:08;;;;;;;5.50;3.22;;;8.20;47.00;;;6.47;55.53;103037.59;8452745;27;20595;-80
2022/03/01 10:12:30;;;;;;;4.97;3.50;;;8.40;46.20;;;6.53;54.82;103005.56;8455177;27;20488;-80
2022/03/01 10:16:52;;;;;;;4.68;3.30;;;8.50;46.70;;;6.52;55.07;102978.75;8466872;27;20778;-80
2022/03/01 10:21:14;;;;;;;4.97;3.53;;;9.00;46.10;;;6.83;54.80;103012.41;8458880;27;20045;-84
2022/03/01 10:25:39;;;;;;;4.00;2.78;;;8.90;46.20;;;6.69;54.60;102962.25;8442981;27;20039;-86
2022/03/01 10:30:04;;;;;;;4.25;3.05;;;8.90;46.30;;;7.05;54.71;102995.06;8463534;27;20264;-82
2022/03/01 10:34:30;;;;;;;3.10;2.80;;;9.10;45.70;;;7.27;54.64;103014.88;8457662;27;20035;-84
2022/03/01 10:38:56;;;;;;;;;;;9.30;45.70;;;7.28;54.60;102982.81;8455519;27;20042;-83
2022/03/01 10:43:18;;;;;;;4.20;2.40;;;9.30;46.30;;;7.37;54.37;102984.53;8466173;27;19911;-81
2022/03/01 10:47:50;;;;;;;3.50;2.67;;;9.50;45.60;;;7.51;54.51;102979.25;8466088;27;20049;-84
2022/03/01 10:52:13;;;;;;;4.25;2.65;;;9.50;45.70;;;7.67;54.23;102972.16;8469786;27;20189;-82
2022/03/01 10:56:37;;;;;;;3.38;2.65;;;9.50;45.90;;;7.76;54.28;102965.19;8471516;27;20035;-82
2022/03/01 11:00:59;;;;;;;5.28;3.13;;;9.70;45.90;;;7.81;53.77;102946.94;8468843;27;20117;-83
2022/03/01 11:05:21;;;;;;;5.20;2.85;;;9.80;44.60;;;7.82;53.81;102927.84;8485360;27;20406;-81
2022/03/01 11:09:45;;;;;;;3.80;3.17;;;9.90;45.10;;;8.08;53.36;102961.47;8457554;27;20341;-82
2022/03/01 11:14:10;;;;;;;2.60;2.30;;;9.90;44.50;;;7.80;53.26;102885.38;8460151;27;20057;-82
2022/03/01 11:19:14;;;;;;;5.00;2.67;;;10.10;44.10;;;8.25;52.96;102948.28;8469234;27;20035;-80
2022/03/01 11:23:37;;;;;;;6.45;2.78;;;10.10;41.70;;;8.32;52.91;102933.50;8457160;27;20161;-80
2022/03/01 11:28:08;;;;;;;4.85;2.97;;;10.20;43.00;;;8.04;52.79;102862.63;8445374;27;20053;-81
2022/03/01 11:32:45;;;;;;;2.63;2.22;;;10.30;42.60;;;8.36;52.11;102894.38;8468507;27;20027;-81
2022/03/01 11:37:21;;;;;;;3.40;2.80;;;10.30;42.30;;;8.19;51.91;102850.31;8446998;28;20504;-81
2022/03/01 11:41:50;;;;;;;3.63;2.42;;;10.20;41.40;;;8.38;51.52;102877.00;8440716;27;20562;-81
2022/03/01 11:46:19;;;;;;;3.72;2.63;;;10.40;40.40;;;8.52;51.22;102894.25;8459570;27;20053;-82
2022/03/01 11:50:59;;;;;;;2.58;2.28;;;10.40;40.70;;;8.66;51.63;102884.50;8447686;27;20031;-82
2022/03/01 11:55:22;;;;;;;3.45;2.65;;;10.40;42.50;;;8.13;51.38;102782.72;8469044;27;20037;-82
2022/03/01 11:59:44;;;;;;;4.13;2.83;;;10.30;42.00;;;8.36;50.83;102805.00;8463952;27;20035;-82
2022/03/01 12:04:09;;;;;;;4.72;2.70;;;10.60;40.80;;;8.91;50.63;102878.97;8460633;27;20039;-82
2022/03/01 12:08:31;;;;;;;7.43;3.10;;;10.60;38.30;;;8.58;50.57;102822.09;8456400;27;20432;-82
2022/03/01 12:12:55;;;;;;;3.67;2.35;;;10.60;40.70;;;8.87;50.46;102854.72;8462048;27;20070;-82
2022/03/01 12:17:19;;;;;;;2.28;1.88;;;10.60;40.40;;;8.99;50.14;102864.09;8458395;27;20420;-81
2022/03/01 12:21:54;;;;;;;3.63;2.50;;;10.80;40.80;;;8.97;50.17;102839.84;8461338;27;20035;-81
2022/03/01 12:26:16;;;;;;;3.25;2.60;;;10.80;41.60;;;8.63;50.16;102764.75;8467912;27;20049;-81
2022/03/01 12:30:43;;;;;;;3.38;2.13;;;10.90;39.90;;;9.15;49.55;102847.34;8449493;27;20031;-82
2022/03/01 12:35:06;;;;;;;3.50;2.47;;;10.90;41.00;;;9.18;50.15;102842.13;8436940;27;20815;-81
2022/03/01 12:39:28;;;;;;;2.15;1.95;;;10.90;42.00;;;9.20;50.12;102829.06;8444638;27;20042;-81
2022/03/01 12:43:57;;;;;;;3.45;2.50;;;11.00;42.00;;;9.27;49.94;102831.53;8449923;27;20047;-81
2022/03/01 12:48:19;;;;;;;2.33;2.00;;;11.10;41.70;;;9.22;49.72;102814.25;8454921;27;20583;-81
2022/03/01 12:52:53;;;;;;;2.67;2.45;;;11.10;42.00;;;9.26;49.83;102813.31;8450769;27;20043;-82
2022/03/01 12:57:16;;;;;;;3.92;2.67;;;11.10;42.00;;;9.23;50.01;102801.19;8464402;27;20038;-81
2022/03/01 13:01:46;;;;;;;6.20;3.05;;;11.20;41.30;;;9.39;49.78;102827.88;8468276;27;20035;-81
2022/03/01 13:06:14;;;;;;;5.00;3.25;;;11.00;42.20;;;9.51;49.20;102829.44;8460568;27;20517;-81
2022/03/01 13:10:36;;;;;;;3.03;2.45;;;11.10;41.60;;;9.29;49.81;102789.81;8456084;27;20034;-81
2022/03/01 13:14:57;;;;;;;4.07;2.50;;;11.20;41.30;;;9.38;49.61;102804.44;8459520;27;20039;-81
2022/03/01 13:19:27;;;;;;;2.50;2.30;;;11.20;42.00;;;9.11;49.17;102759.69;8468914;27;20038;-82
2022/03/01 13:23:51;;;;;;;2.83;2.00;;;11.20;41.50;;;9.43;49.28;102808.69;8442173;27;20040;-82
2022/03/01 13:28:13;;;;;;;4.22;2.67;;;11.20;41.50;;;9.35;49.34;102788.84;8453544;27;20049;-82
2022/03/01 13:32:35;;;;;;;2.92;2.30;;;11.20;41.40;;;9.44;49.38;102805.19;8459954;27;20513;-82
2022/03/01 13:37:00;;;;;;;2.53;2.33;;;11.10;42.30;;;9.04;49.23;102722.44;8472510;27;20224;-81
2022/03/01 13:41:34;;;;;;;3.90;2.70;;;11.00;41.70;;;9.44;48.73;102786.06;8451521;27;20049;-83
2022/03/01 13:46:03;;;;;;;2.83;2.40;;;11.00;40.80;;;9.46;48.63;102793.00;8463741;27;20047;-83
2022/03/01 13:50:25;;;;;;;2.80;2.38;;;11.10;40.00;;;9.37;49.22;102774.03;8456783;27;20057;-83
2022/03/01 13:55:05;;;;;;;3.90;2.95;;;11.00;41.20;;;9.23;48.71;102741.22;8456918;27;20488;-83
2022/03/01 13:59:27;;;;;;;2.95;2.25;;;11.10;40.00;;;9.38;48.96;102762.72;8460967;27;20491;-83
2022/03/01 14:03:49;;;;;;;3.25;2.58;;;11.10;41.40;;;9.47;48.59;102778.19;8457537;27;20039;-82
2022/03/01 14:08:16;;;;;;;4.65;2.45;;;11.40;40.40;;;9.36;48.60;102756.66;8443733;27;20046;-81
2022/03/01 14:12:43;;;;;;;4.50;2.30;;;11.10;41.40;;;9.35;48.59;102747.13;8466457;27;20031;-81
2022/03/01 14:17:06;;;;;;;4.75;2.97;;;11.30;41.70;;;9.35;48.84;102747.13;8432243;27;20041;-82
2022/03/01 14:21:28;;;;;;;4.10;2.35;;;11.10;39.90;;;9.34;48.81;102740.19;8467112;27;20041;-83
2022/03/01 14:25:49;;;;;;;3.03;2.20;;;11.10;41.30;;;9.43;48.17;102746.09;8442656;27;20144;-83
2022/03/01 14:30:12;;;;;;;3.35;2.63;;;11.00;41.60;;;9.42;48.73;102740.91;8456197;27;20036;-82
2022/03/01 14:34:34;;;;;;;3.70;2.75;;;11.00;41.10;;;9.27;48.53;102715.97;8462405;27;20027;-83
2022/03/01 14:38:56;;;;;;;5.43;2.67;;;11.10;41.10;;;9.45;48.41;102744.34;8481040;27;20035;-82
2022/03/01 14:43:18;;;;;;;3.72;2.35;;;11.10;41.10;;;9.43;48.25;102727.00;8443102;27;20037;-82
2022/03/01 14:47:40;;;;;;;2.67;2.30;;;11.10;40.50;;;9.33;48.31;102704.59;8485412;27;20031;-82
2022/03/01 14:52:02;;;;;;;3.05;2.22;;;11.10;41.30;;;9.19;48.54;102673.56;8464877;27;20027;-82
2022/03/01 14:56:24;;;;;;;3.55;2.47;;;11.10;41.20;;;9.40;48.10;102706.19;8453315;27;20043;-82
2022/03/01 15:00:46;;;;;;;2.67;2.45;;;10.90;40.90;;;9.39;48.10;102707.91;8450598;27;20033;-80
2022/03/01 15:05:09;;;;;;;3.50;2.58;;;11.10;41.40;;;9.41;48.08;102710.50;8463535;27;20031;-81
2022/03/01 15:09:31;;;;;;;4.15;2.92;;;11.10;41.50;;;9.28;47.77;102687.25;8446842;27;20045;-81
2022/03/01 15:13:53;;;;;;;4.28;2.92;;;10.80;39.00;;;9.36;47.86;102709.72;8465016;27;20046;-83
2022/03/01 15:18:14;;;;;;;3.67;2.72;;;10.90;39.80;;;9.34;47.81;102708.91;8463827;27;20057;-80
2022/03/01 15:22:36;;;;;;;4.03;2.80;;;11.10;39.80;;;9.34;47.71;102708.91;8467336;27;20038;-87
2022/03/01 15:26:58;;;;;;;3.28;2.60;;;11.00;40.20;;;9.40;47.76;102714.03;8453272;27;20038;-80
2022/03/01 15:31:20;;;;;;;2.95;2.20;;;11.00;40.90;;;9.38;47.70;102716.66;8466584;28;20031;-80
2022/03/01 15:35:42;;;;;;;3.20;2.58;;;11.00;41.10;;;9.34;47.92;102706.28;8482415;27;20031;-79
2022/03/01 15:40:07;;;;;;;2.67;2.08;;;10.90;40.80;;;9.15;47.55;102675.31;8484810;27;20051;-80
2022/03/01 15:44:29;;;;;;;4.22;2.70;;;10.90;40.90;;;9.29;47.91;102706.41;8465520;28;20031;-80
2022/03/01 15:48:50;;;;;;;3.63;2.40;;;10.90;41.00;;;9.12;47.85;102682.34;8455433;28;20043;-79
2022/03/01 15:53:12;;;;;;;3.38;3.08;;;10.80;41.10;;;9.10;47.62;102679.78;8468847;27;20049;-80
2022/03/01 15:57:35;;;;;;;3.00;2.38;;;10.80;41.10;;;9.01;47.51;102670.38;8451431;28;20034;-80
2022/03/01 16:01:56;;;;;;;3.55;2.88;;;10.80;41.30;;;8.69;47.73;102624.00;8477113;28;20053;-79
2022/03/01 16:06:18;;;;;;;2.95;2.30;;;10.60;41.10;;;9.01;47.39;102680.78;8473660;27;20039;-79
2022/03/01 16:10:40;;;;;;;5.05;2.65;;;10.70;41.10;;;8.66;47.86;102626.69;8477611;27;20081;-80
2022/03/01 16:15:06;;;;;;;3.10;2.08;;;10.60;41.40;;;8.88;47.80;102684.47;8434186;27;20380;-80
2022/03/01 16:19:27;;;;;;;4.55;2.90;;;10.60;41.50;;;8.76;47.81;102676.88;8445931;28;20039;-80
2022/03/01 16:23:49;;;;;;;2.67;1.92;;;10.50;41.70;;;8.63;47.57;102671.00;8459221;28;20048;-78
2022/03/01 16:28:11;;;;;;;3.58;2.13;;;10.40;41.60;;;8.52;47.47;102683.34;8462936;27;20035;-79
2022/03/01 16:32:33;;;;;;;2.60;1.98;;;10.20;41.60;;;8.23;47.73;102647.28;8471953;27;20035;-79
2022/03/01 16:36:57;;;;;;;2.17;1.98;;;10.00;41.60;;;8.25;47.65;102671.53;8475109;27;20060;-79
2022/03/01 16:41:20;;;;;;;4.18;2.17;;;9.90;41.80;;;8.13;47.52;102667.38;8455671;27;20037;-79
2022/03/01 16:45:42;;;;;;;6.35;2.03;;;9.60;42.00;;;8.05;47.53;102666.63;8470118;27;20108;-79
2022/03/01 16:50:09;;;;;;;4.82;2.10;;;9.60;42.10;;;7.93;47.83;102671.09;8464813;27;20054;-81
2022/03/01 16:54:32;;;;;;;4.32;2.03;;;9.50;42.10;;;7.69;47.87;102650.59;8453396;27;20035;-80
2022/03/01 16:58:54;;;;;;;2.58;2.22;;;9.10;41.90;;;7.67;47.54;102680.94;8450311;27;20046;-80
2022/03/01 17:03:16;;;;;;;2.42;2.13;;;9.10;42.00;;;7.50;47.32;102682.00;8452455;27;20039;-80
2022/03/01 17:07:38;;;;;;;5.88;1.95;;;9.10;42.10;;;7.29;47.60;102666.63;8463395;27;20034;-80
2022/03/01 17:12:00;;;;;;;6.55;3.47;;;8.90;42.40;;;7.18;47.52;102669.31;8466070;27;20045;-81
2022/03/01 17:16:23;;;;;;;4.00;2.30;;;8.80;42.60;;;6.97;47.37;102649.63;8454593;27;20027;-80
2022/03/01 17:20:48;;;;;;;7.63;4.70;;;8.60;42.70;;;7.05;47.60;102671.19;8474281;27;20045;-80
2022/03/01 17:25:10;;;;;;;35.08;16.70;;;8.60;42.90;;;7.05;47.66;102676.41;8447486;27;20039;-80
2022/03/01 17:29:32;;;;;;;60.55;27.08;;;8.40;43.10;;;6.96;48.08;102691.19;8460312;27;20027;-79
2022/03/01 17:33:54;;;;;;;73.40;32.45;;;8.50;43.20;;;6.79;47.76;102678.34;8447333;27;20038;-80
2022/03/01 17:38:16;;;;;;;80.70;33.47;;;8.40;43.30;;;6.73;48.20;102679.25;8450460;27;20104;-80
2022/03/01 17:42:37;;;;;;;54.78;24.63;;;8.20;43.30;;;6.38;48.05;102632.78;8455548;27;20043;-80
2022/03/01 17:46:59;;;;;;;47.30;21.83;;;8.10;43.10;;;6.58;48.06;102687.16;8482535;27;20403;-80
2022/03/01 17:51:21;;;;;;;33.70;13.63;;;8.10;43.00;;;6.44;48.00;102674.25;8476133;27;20038;-80
2022/03/01 17:55:43;;;;;;;20.60;8.85;;;8.00;43.10;;;6.33;48.36;102683.84;8461387;27;20038;-80
2022/03/01 18:00:08;;;;;;;12.45;6.65;;;7.80;43.00;;;6.16;48.11;102670.97;8458574;27;20057;-80
2022/03/01 18:04:36;;;;;;;8.10;5.05;;;7.70;43.00;;;6.03;47.62;102672.78;8445754;27;20513;-80
2022/03/01 18:08:58;;;;;;;8.95;4.43;;;7.60;43.20;;;5.92;48.31;102671.94;8448634;27;20503;-80
2022/03/01 18:13:20;;;;;;;5.05;3.85;;;7.40;43.20;;;5.72;48.13;102652.09;8465392;27;20035;-80
2022/03/01 18:17:42;;;;;;;6.43;3.47;;;7.20;43.20;;;5.55;48.05;102643.56;8459914;27;20030;-80
2022/03/01 18:22:06;;;;;;;4.82;3.40;;;7.20;43.30;;;5.52;48.27;102666.88;8465915;27;20699;-80
2022/03/01 18:26:29;;;;;;;6.25;3.75;;;7.10;43.40;;;5.49;48.16;102670.34;8467332;27;20039;-80
2022/03/01 18:30:52;;;;;;;4.50;3.10;;;7.20;43.60;;;5.41;48.64;102672.09;8462421;27;20470;-80
2022/03/01 18:35:14;;;;;;;4.47;2.88;;;7.00;43.70;;;5.38;48.19;102679.03;8451571;27;20034;-80
2022/03/01 18:39:36;;;;;;;5.85;3.00;;;6.90;43.90;;;5.24;48.52;102659.19;8461399;27;20065;-80